Latest Weather Observations for Ben Nevis

IDV60801

Issued at 9:35 pm EST Monday 1 September 2014 (issued every 30 minutes, with the page automatically refreshed every 10 minutes)

About weather observations | Map of weather stations | Latest weather observations for VIC | Other Formats
Station Details ID: 079101 Name: BEN NEVIS Lat: -37.23 Lon: 143.20 Height: 875.0 m
Data from the previous 72 hours. | See also: Recent months at Ben Nevis
Date/Time
EST
Temp
°C
App
Temp
°C
Dew
Point
Rel
Hum
%
Delta-T
°C
Wind Press
QNH
hPa
Press
MSL
hPa
Rain
since 9 am
mm
Dir
 
Spd
km/h
Gust
km/h
Spd
kts
Gust
kts
01/09:30pm 4.1 -1.0 4.0 99 0.0 SW 20 33 11 18 - - 4.4
01/09:00pm 4.5 -0.3 4.4 99 0.0 SW 19 26 10 14 - - 4.4
01/08:30pm 4.5 -0.5 4.4 99 0.0 SSW 20 33 11 18 - - 4.4
01/08:00pm 4.4 -1.0 4.3 99 0.0 SSW 22 30 12 16 - - 4.4
01/07:30pm 4.2 -1.3 4.1 99 0.0 SW 22 33 12 18 - - 4.4
01/07:00pm 4.1 -1.0 4.0 99 0.0 SSW 20 32 11 17 - - 4.4
01/06:30pm 3.5 -1.6 3.2 98 0.1 SSW 19 28 10 15 - - 4.4
01/06:00pm 3.5 -1.8 2.9 96 0.3 SSW 20 30 11 16 - - 4.4
01/05:30pm 4.1 -1.9 3.4 95 0.3 SSW 24 33 13 18 - - 4.4
01/05:00pm 4.6 -2.3 4.5 99 0.0 SSW 30 43 16 23 - - 4.4
01/04:30pm 2.9 -5.7 2.8 99 0.0 S 37 50 20 27 - - 4.4
01/04:29pm 2.9 -5.7 2.8 99 0.0 S 37 50 20 27 - - 4.4
01/04:00pm 3.0 -5.9 2.9 99 0.0 SW 39 59 21 32 - - 4.0
01/03:30pm 3.8 -7.6 3.1 95 0.3 WSW 52 80 28 43 - - 1.0
01/03:26pm 5.6 -4.2 5.5 99 0.0 WSW 46 70 25 38 - - 1.0
01/03:00pm 7.3 3.4 7.2 99 0.0 WSW 17 30 9 16 - - 1.0
01/02:30pm 7.0 3.8 6.9 99 0.0 WSW 13 24 7 13 - - 1.0
01/02:00pm 6.2 1.7 6.1 99 0.0 SW 19 37 10 20 - - 1.0
01/01:30pm 6.5 1.5 6.4 99 0.0 SW 22 35 12 19 - - 0.4
01/01:00pm 7.7 5.8 7.6 99 0.0 W 7 17 4 9 - - 0.0
01/12:30pm 7.4 5.1 7.3 99 0.0 N 9 22 5 12 - - 0.0
01/12:00pm 7.3 4.6 7.2 99 0.0 WNW 11 20 6 11 - - 0.0
01/11:30am 7.2 4.4 7.1 99 0.0 WNW 11 26 6 14 - - 0.0
01/11:00am 7.1 4.3 7.0 99 0.0 NW 11 19 6 10 - - 0.0
01/10:30am 7.1 4.7 7.0 99 0.0 WNW 9 17 5 9 - - 0.0
01/10:00am 6.8 3.9 6.7 99 0.0 WNW 11 15 6 8 - - 0.0
01/09:30am 6.5 4.0 6.4 99 0.0 NW 9 17 5 9 - - 0.0
01/09:00am 6.6 4.1 6.5 99 0.0 N 9 19 5 10 - - 4.8
01/08:30am 7.1 4.7 7.0 99 0.0 NNW 9 20 5 11 - - 4.2
01/08:00am 7.3 4.9 7.2 99 0.0 NW 9 22 5 12 - - 3.4
01/07:30am 7.0 3.8 6.7 98 0.1 W 13 22 7 12 - - 1.8
01/07:00am 7.0 2.5 6.3 95 0.3 W 19 30 10 16 - - 0.8
01/06:30am 6.8 3.9 4.6 86 1.0 WNW 9 15 5 8 - - 0.4
01/06:00am 7.9 3.7 1.5 64 2.8 N 13 20 7 11 - - 0.0
01/05:30am 9.0 4.8 -0.6 51 4.0 N 11 19 6 10 - - 0.0
01/05:00am 9.7 4.7 -1.1 47 4.5 N 15 26 8 14 - - 0.0
01/04:30am 9.8 4.1 -0.7 48 4.4 N 19 35 10 19 - - 0.0
01/04:00am 10.4 5.8 -1.0 45 4.7 N 13 26 7 14 - - 0.0
01/03:30am 12.1 5.3 -2.1 37 5.9 NNW 24 48 13 26 - - 0.0
01/03:00am 12.2 5.5 -1.3 39 5.7 N 24 44 13 24 - - 0.0
01/02:30am 12.1 5.7 -1.4 39 5.7 N 22 43 12 23 - - 0.0
01/02:00am 12.5 5.7 -1.8 37 6.0 N 24 41 13 22 - - 0.0
01/01:30am 12.8 5.6 -2.3 35 6.3 N 26 50 14 27 - - 0.0
01/01:00am 12.8 6.0 -1.9 36 6.1 N 24 44 13 24 - - 0.0
01/12:30am 12.9 5.3 -1.8 36 6.2 N 28 46 15 25 - - 0.0
01/12:07am 12.9 5.3 -1.8 36 6.2 N 28 50 15 27 - - 0.0
01/12:00am 12.8 5.7 -1.5 37 6.0 N 26 48 14 26 - - 0.0
 
Date/Time
EST
Temp
°C
App
Temp
°C
Dew
Point
Rel
Hum
%
Delta-T
°C
Wind Press
QNH
hPa
Press
MSL
hPa
Rain
since 9 am
mm
Dir
 
Spd
km/h
Gust
km/h
Spd
kts
Gust
kts
31/11:35pm 13.0 5.5 -1.7 36 6.2 N 28 46 15 25 - - 0.0
31/11:30pm 12.9 5.7 -1.8 36 6.2 N 26 48 14 26 - - 0.0
31/11:02pm 13.0 5.5 -1.7 36 6.2 N 28 46 15 25 - - 0.0
31/11:00pm 12.9 5.3 -1.8 36 6.2 N 28 44 15 24 - - 0.0
31/10:30pm 12.8 5.3 -1.5 37 6.0 N 28 50 15 27 - - 0.0
31/10:29pm 12.8 5.3 -1.5 37 6.0 N 28 50 15 27 - - 0.0
31/10:00pm 12.6 6.3 -1.3 38 5.9 N 22 37 12 20 - - 0.0
31/09:30pm 12.9 6.2 -1.1 38 6.0 N 24 43 13 23 - - 0.0
31/09:06pm 13.0 5.5 -1.3 37 6.1 N 28 46 15 25 - - 0.0
31/09:00pm 13.0 6.3 -1.3 37 6.1 N 24 46 13 25 - - 0.0
31/08:30pm 13.2 7.2 -1.2 37 6.1 N 20 35 11 19 - - 0.0
31/08:00pm 13.3 7.4 -0.7 38 6.0 N 20 35 11 19 - - 0.0
31/07:30pm 13.0 7.4 -0.3 40 5.8 N 19 33 10 18 - - 0.0
31/07:00pm 13.2 7.5 0.3 41 5.7 N 20 33 11 18 - - 0.0
31/06:30pm 12.9 7.4 0.6 43 5.4 N 19 32 10 17 - - 0.0
31/06:00pm 13.6 7.9 0.6 41 5.8 N 20 35 11 19 - - 0.0
31/05:30pm 13.9 8.5 1.2 42 5.7 N 19 32 10 17 - - 0.0
31/05:00pm 14.1 8.7 2.7 46 5.3 N 20 41 11 22 - - 0.0
31/04:30pm 14.0 9.0 4.6 53 4.6 N 20 35 11 19 - - 0.0
31/04:00pm 14.1 8.3 4.4 52 4.7 N 24 43 13 23 - - 0.0
31/03:30pm 14.7 9.9 5.5 54 4.6 N 20 33 11 18 - - 0.0
31/03:00pm 13.9 8.9 4.8 54 4.4 N 20 30 11 16 - - 0.0
31/02:30pm 15.1 10.3 4.5 49 5.2 N 19 30 10 16 - - 0.0
31/02:00pm 14.4 9.6 4.4 51 4.9 N 19 28 10 15 - - 0.0
31/01:30pm 14.3 9.4 4.0 50 5.0 N 19 33 10 18 - - 0.0
31/01:00pm 13.4 8.5 4.3 54 4.4 N 19 32 10 17 - - 0.0
31/12:30pm 15.5 10.7 4.8 49 5.3 N 19 32 10 17 - - 0.0
31/12:00pm 13.5 8.9 3.6 51 4.7 N 17 32 9 17 - - 0.0
31/11:30am 15.5 10.5 4.5 48 5.4 N 20 44 11 24 - - 0.0
31/11:00am 13.9 8.6 2.8 47 5.2 N 20 33 11 18 - - 0.0
31/10:30am 14.2 9.0 2.5 45 5.4 N 19 30 10 16 - - 0.0
31/10:00am 13.8 8.3 2.1 45 5.4 N 20 37 11 20 - - 0.0
31/09:30am 13.4 8.0 2.6 48 5.0 N 20 33 11 18 - - 0.0
31/09:00am 11.9 6.6 1.8 50 4.5 N 19 33 10 18 - - 0.0
31/08:30am 11.4 6.2 2.4 54 4.1 N 19 26 10 14 - - 0.0
31/08:00am 10.9 5.4 2.0 54 4.0 N 20 35 11 19 - - 0.0
31/07:30am 9.6 5.1 2.2 60 3.3 N 15 24 8 13 - - 0.0
31/07:00am 9.8 4.2 1.5 56 3.6 N 20 32 11 17 - - 0.0
31/06:30am 9.8 4.5 1.7 57 3.6 N 19 35 10 19 - - 0.0
31/06:00am 9.4 4.1 2.0 60 3.3 N 19 28 10 15 - - 0.0
31/05:30am 8.6 4.1 2.2 64 2.8 N 15 24 8 13 - - 0.0
31/05:00am 9.1 4.3 2.4 63 3.0 NNE 17 30 9 16 - - 0.0
31/04:30am 9.7 4.3 2.6 61 3.2 N 20 35 11 19 - - 0.0
31/04:00am 9.7 4.1 3.2 64 3.0 NE 22 35 12 19 - - 0.0
31/03:30am 9.8 4.6 3.8 66 2.8 NE 20 32 11 17 - - 0.0
31/03:00am 9.5 5.0 4.3 70 2.4 NE 17 24 9 13 - - 0.0
31/02:30am 9.9 4.8 4.3 68 2.6 NE 20 28 11 15 - - 0.0
31/02:00am 10.0 5.0 4.4 68 2.6 NE 20 30 11 16 - - 0.0
31/01:30am 9.9 4.5 4.5 69 2.5 NE 22 33 12 18 - - 0.0
31/01:00am 10.1 4.7 4.5 68 2.6 NE 22 35 12 19 - - 0.0
31/12:30am 10.4 5.5 3.9 64 3.0 NNE 19 28 10 15 - - 0.0
31/12:00am 10.3 5.4 4.2 66 2.9 NNE 19 26 10 14 - - 0.0
 
Date/Time
EST
Temp
°C
App
Temp
°C
Dew
Point
Rel
Hum
%
Delta-T
°C
Wind Press
QNH
hPa
Press
MSL
hPa
Rain
since 9 am
mm
Dir
 
Spd
km/h
Gust
km/h
Spd
kts
Gust
kts
30/11:30pm 10.3 5.8 4.0 65 2.9 NNE 17 24 9 13 - - 0.0
30/11:00pm 10.6 6.1 4.3 65 3.0 NNE 17 22 9 12 - - 0.0
30/10:30pm 9.8 6.0 4.0 67 2.7 NNE 13 19 7 10 - - 0.0
30/10:00pm 9.6 6.2 4.2 69 2.5 N 11 17 6 9 - - 0.0
30/09:30pm 10.3 6.6 4.7 68 2.7 NE 13 19 7 10 - - 0.0
30/09:00pm 10.9 6.8 4.6 65 3.0 NE 15 20 8 11 - - 0.0
30/08:30pm 10.8 6.9 5.3 69 2.6 NNE 15 20 8 11 - - 0.0
30/08:00pm 10.4 6.9 5.6 72 2.3 NNE 13 20 7 11 - - 0.0
30/07:30pm 10.5 7.1 5.7 72 2.3 NNE 13 19 7 10 - - 0.0
30/07:00pm 10.5 7.2 6.3 75 2.1 NNE 13 20 7 11 - - 0.0
30/06:30pm 10.4 7.5 6.7 78 1.8 N 11 17 6 9 - - 0.0
30/06:00pm 10.9 8.3 6.3 73 2.3 N 9 13 5 7 - - 0.0
30/05:30pm 12.0 9.5 6.7 70 2.7 NNW 9 13 5 7 - - 0.0
30/05:00pm 12.7 10.6 6.7 67 3.0 NNW 7 11 4 6 - - 0.0
30/04:30pm 13.4 10.9 6.5 63 3.5 NNW 9 15 5 8 - - 0.0
30/04:00pm 13.9 11.4 6.7 62 3.7 NNW 9 19 5 10 - - 0.0
30/03:30pm 14.8 12.5 7.6 62 3.7 N 9 17 5 9 - - 0.0
30/03:00pm 15.3 13.0 7.6 60 4.0 N 9 15 5 8 - - 0.0
30/02:30pm 15.4 12.6 6.9 57 4.4 N 11 19 6 10 - - 0.0
30/02:00pm 15.8 13.2 7.8 59 4.2 N 11 22 6 12 - - 0.0
30/01:30pm 15.3 12.5 6.8 57 4.4 N 11 20 6 11 - - 0.0
30/01:00pm 14.5 11.2 6.6 59 4.0 N 13 24 7 13 - - 0.0
30/12:30pm 15.4 12.4 7.7 60 4.0 N 13 20 7 11 - - 0.0
30/12:00pm 14.5 11.5 7.8 64 3.5 N 13 22 7 12 - - 0.0
30/11:30am 13.3 9.8 7.3 67 3.1 N 15 22 8 12 - - 0.0
30/11:00am 12.7 9.1 6.7 67 3.0 N 15 22 8 12 - - 0.0
30/10:30am 11.6 7.8 5.7 67 2.9 N 15 22 8 12 - - 0.0
30/10:00am 11.5 7.7 6.0 69 2.7 N 15 24 8 13 - - 0.0
30/09:30am 11.1 7.0 6.3 72 2.4 N 17 26 9 14 - - 0.0
30/09:00am 10.3 5.8 6.1 75 2.1 N 19 24 10 13 - - 0.0
30/08:30am 9.6 5.4 5.8 77 1.8 N 17 24 9 13 - - 0.0
30/08:00am 9.1 4.9 5.8 80 1.6 N 17 20 9 11 - - 0.0
30/07:30am 7.9 3.6 5.2 83 1.3 N 17 20 9 11 - - 0.0
30/07:00am 7.0 3.0 4.7 85 1.1 N 15 20 8 11 - - 0.0
30/06:30am 7.2 2.8 4.5 83 1.2 N 17 22 9 12 - - 0.0
30/06:00am 7.5 2.8 3.2 74 1.9 NNE 17 22 9 12 - - 0.0
30/05:30am 7.9 2.6 -0.3 56 3.4 NNE 17 22 9 12 - - 0.0
30/05:00am 7.1 1.8 2.8 74 1.9 ENE 20 28 11 15 - - 0.0
30/04:30am 8.2 3.1 -1.6 50 3.9 E 15 24 8 13 - - 0.0
30/04:00am 8.3 3.8 -0.2 55 3.5 E 13 20 7 11 - - 0.0
30/03:30am 7.6 3.0 1.7 66 2.5 E 15 20 8 11 - - 0.0
30/03:00am 7.6 2.6 1.5 65 2.6 E 17 22 9 12 - - 0.0
30/02:30am 7.9 2.5 1.1 62 2.9 E 19 26 10 14 - - 0.0
30/02:00am 9.5 4.1 -1.5 46 4.5 E 17 22 9 12 - - 0.0
30/01:30am 9.2 3.6 -2.7 43 4.7 E 17 20 9 11 - - 0.0
30/01:00am 9.6 4.0 -5.9 33 5.7 SE 15 19 8 10 - - 0.0
30/12:30am 10.7 5.0 -12.6 18 7.5 SSE 13 17 7 9 - - 0.0
30/12:00am 11.5 4.9 -15.0 14 8.1 SE 17 26 9 14 - - 0.0
 
Date/Time
EST
Temp
°C
App
Temp
°C
Dew
Point
Rel
Hum
%
Delta-T
°C
Wind Press
QNH
hPa
Press
MSL
hPa
Rain
since 9 am
mm
Dir
 
Spd
km/h
Gust
km/h
Spd
kts
Gust
kts
29/11:30pm 12.0 5.2 -12.3 17 8.0 SE 19 30 10 16 - - 0.0
29/11:00pm 11.0 3.6 -13.1 17 7.7 SE 22 30 12 16 - - 0.0
29/10:30pm 11.2 3.8 -12.9 17 7.7 SE 22 30 12 16 - - 0.0
29/10:00pm 10.8 3.6 -10.0 22 7.1 SE 22 35 12 19 - - 0.0

Other Formats:

Comma delimited format used in spreadsheet applications
http://www.bom.gov.au/fwo/IDV60801/IDV60801.94835.axf

JavaScript Object Notation format (JSON) in row-major order
http://www.bom.gov.au/fwo/IDV60801/IDV60801.94835.json